createdAt,value
2017-12-01T00:02:12.440Z,97.20
2017-12-01T00:04:39.991Z,97.20
2017-12-01T00:07:07.715Z,97.30
2017-12-01T00:09:35.272Z,97.80
2017-12-01T00:12:02.818Z,98.20
2017-12-01T00:14:30.514Z,98.40
2017-12-01T00:16:58.060Z,98.70
2017-12-01T00:19:25.603Z,98.80
2017-12-01T00:21:53.203Z,99.10
2017-12-01T00:24:20.759Z,99.10
2017-12-01T00:26:48.312Z,99.20
2017-12-01T00:29:15.919Z,99.00
2017-12-01T00:31:43.462Z,99.40
2017-12-01T00:34:11.011Z,99.40
2017-12-01T00:36:39.387Z,99.90
2017-12-01T00:39:06.940Z,99.80
2017-12-01T00:41:34.483Z,99.90
2017-12-01T00:44:02.084Z,99.80
2017-12-01T00:46:29.631Z,99.90
2017-12-01T00:48:57.174Z,99.90
2017-12-01T00:51:24.875Z,99.90
2017-12-01T00:53:52.419Z,99.90
2017-12-01T00:56:20.730Z,99.90
2017-12-01T00:58:48.415Z,99.90
2017-12-01T01:01:15.964Z,99.90
2017-12-01T01:03:43.515Z,99.90
2017-12-01T01:06:11.871Z,99.90
2017-12-01T01:08:39.426Z,99.90
2017-12-01T01:11:06.975Z,99.90
2017-12-01T01:13:34.675Z,99.90
2017-12-01T01:16:02.223Z,99.90
2017-12-01T01:18:29.771Z,99.90
2017-12-01T01:20:57.494Z,99.90
2017-12-01T01:23:25.038Z,99.90
2017-12-01T01:25:52.587Z,99.90
2017-12-01T01:28:21.129Z,99.90
2017-12-01T01:30:48.688Z,99.90
2017-12-01T01:33:16.232Z,99.90
2017-12-01T01:35:43.822Z,99.90
2017-12-01T01:38:11.371Z,99.90
2017-12-01T01:40:38.918Z,99.90
2017-12-01T01:43:07.371Z,99.90
2017-12-01T01:45:34.925Z,99.90
2017-12-01T01:48:02.468Z,99.90
2017-12-01T01:50:30.947Z,99.90
2017-12-01T01:52:59.267Z,99.90
2017-12-01T01:55:26.815Z,99.90
2017-12-01T01:57:55.355Z,99.90
2017-12-01T02:00:22.907Z,99.90
2017-12-01T02:02:50.455Z,99.90
2017-12-01T02:05:18.807Z,99.90
2017-12-01T02:07:46.346Z,99.90
2017-12-01T02:10:13.894Z,99.90
2017-12-01T02:12:41.488Z,99.90
2017-12-01T02:15:09.035Z,99.90
2017-12-01T02:17:36.583Z,99.90
2017-12-01T02:20:04.184Z,99.90
2017-12-01T02:22:31.736Z,99.90
2017-12-01T02:25:00.143Z,99.90
2017-12-01T02:27:27.963Z,99.90
2017-12-01T02:29:55.511Z,99.90
2017-12-01T02:32:23.059Z,99.90
2017-12-01T02:34:50.667Z,99.90
2017-12-01T02:37:18.234Z,99.90
2017-12-01T02:39:45.779Z,99.90
2017-12-01T02:42:13.379Z,99.90
2017-12-01T02:44:40.933Z,99.90
2017-12-01T02:47:09.356Z,99.90
2017-12-01T02:49:36.948Z,99.90
2017-12-01T02:52:04.520Z,99.90
2017-12-01T02:54:32.071Z,99.90
2017-12-01T02:56:59.667Z,99.90
2017-12-01T02:59:27.226Z,99.90
2017-12-01T03:01:54.774Z,99.90
2017-12-01T03:04:22.375Z,99.90
2017-12-01T03:06:51.431Z,99.90
2017-12-01T03:09:18.984Z,99.90
2017-12-01T03:11:46.804Z,99.90
2017-12-01T03:14:14.365Z,99.90
2017-12-01T03:16:41.911Z,99.90
2017-12-01T03:19:09.619Z,99.90
2017-12-01T03:21:37.162Z,99.90
2017-12-01T03:24:04.704Z,99.90
2017-12-01T03:26:33.071Z,99.90
2017-12-01T03:29:00.627Z,99.90
2017-12-01T03:31:28.170Z,99.90
2017-12-01T03:33:55.967Z,99.90
2017-12-01T03:36:23.524Z,99.90
2017-12-01T03:38:51.086Z,99.90
2017-12-01T03:41:18.670Z,99.90
2017-12-01T03:43:46.210Z,99.90
2017-12-01T03:46:13.765Z,99.90
2017-12-01T03:48:42.320Z,99.90
2017-12-01T03:51:09.862Z,99.90
2017-12-01T03:53:37.402Z,99.90
2017-12-01T03:56:05.911Z,99.90
2017-12-01T03:58:33.464Z,99.90
2017-12-01T04:01:01.778Z,99.90
2017-12-01T04:03:29.362Z,99.90
2017-12-01T04:05:56.915Z,99.90
2017-12-01T04:08:24.467Z,99.90
2017-12-01T04:10:52.824Z,99.90
2017-12-01T04:13:20.378Z,99.90
2017-12-01T04:15:49.118Z,99.90
2017-12-01T04:18:16.851Z,99.90
2017-12-01T04:20:44.394Z,99.90
2017-12-01T04:23:11.942Z,99.90
2017-12-01T04:25:40.303Z,99.90
2017-12-01T04:28:07.847Z,99.90
2017-12-01T04:30:35.399Z,99.90
2017-12-01T04:33:02.988Z,99.90
2017-12-01T04:35:30.531Z,99.90
2017-12-01T04:37:58.847Z,99.90
2017-12-01T04:40:26.436Z,99.90
2017-12-01T04:42:53.975Z,99.90
2017-12-01T04:45:21.536Z,99.90
2017-12-01T04:47:49.156Z,99.90
2017-12-01T04:50:16.714Z,99.90
2017-12-01T04:52:44.264Z,99.90
2017-12-01T04:55:11.858Z,99.90
2017-12-01T04:57:39.431Z,99.90
2017-12-01T05:00:06.979Z,99.90
2017-12-01T05:02:34.566Z,99.90
2017-12-01T05:05:02.112Z,99.70
2017-12-01T05:07:29.659Z,99.90
2017-12-01T05:09:58.020Z,99.90
2017-12-01T05:12:25.564Z,99.90
2017-12-01T05:14:53.143Z,99.80
2017-12-01T05:17:20.755Z,99.70
2017-12-01T05:19:48.307Z,99.60
2017-12-01T05:22:15.856Z,99.60
2017-12-01T05:24:43.643Z,99.60
2017-12-01T05:27:11.190Z,99.70
2017-12-01T05:29:38.948Z,99.60
2017-12-01T05:32:06.776Z,99.50
2017-12-01T05:34:34.362Z,99.50
2017-12-01T05:37:01.923Z,99.40
2017-12-01T05:39:29.510Z,99.50
2017-12-01T05:41:57.060Z,99.40
2017-12-01T05:44:24.667Z,99.50
2017-12-01T05:46:53.031Z,99.30
2017-12-01T05:49:20.576Z,99.30
2017-12-01T05:51:48.137Z,99.30
2017-12-01T05:54:15.834Z,99.20
2017-12-01T05:56:43.380Z,99.10
2017-12-01T05:59:10.935Z,99.20
2017-12-01T06:01:38.540Z,99.10
2017-12-01T06:04:06.091Z,99.10
2017-12-01T06:06:33.646Z,99.00
2017-12-01T06:09:01.244Z,98.90
2017-12-01T06:11:28.795Z,99.10
2017-12-01T06:13:56.336Z,99.10
2017-12-01T06:16:24.000Z,98.90
2017-12-01T06:18:51.671Z,98.70
2017-12-01T06:21:20.027Z,99.10
2017-12-01T06:28:00.211Z,98.80
2017-12-01T06:30:27.808Z,98.70
2017-12-01T06:32:55.371Z,98.70
2017-12-01T06:35:22.917Z,98.80
2017-12-01T06:37:51.271Z,98.80
2017-12-01T06:40:18.820Z,98.70
2017-12-01T06:42:46.390Z,98.80
2017-12-01T06:45:15.318Z,98.80
2017-12-01T06:47:42.959Z,98.90
2017-12-01T06:50:10.511Z,98.80
2017-12-01T06:52:38.302Z,98.90
2017-12-01T06:55:05.859Z,99.10
2017-12-01T06:57:34.034Z,98.90
2017-12-01T07:00:02.477Z,99.90
2017-12-01T07:02:30.023Z,99.90
2017-12-01T07:04:57.570Z,99.90
2017-12-01T07:07:25.175Z,99.70
2017-12-01T07:09:52.734Z,99.30
2017-12-01T07:12:20.297Z,97.10
2017-12-01T07:14:48.486Z,96.70
2017-12-01T07:17:16.037Z,96.70
2017-12-01T07:19:43.827Z,97.10
2017-12-01T07:22:11.423Z,97.20
2017-12-01T07:24:38.985Z,97.40
2017-12-01T07:27:08.202Z,97.70
2017-12-01T07:29:35.994Z,97.80
2017-12-01T07:32:03.903Z,98.00
2017-12-01T07:34:32.219Z,98.40
2017-12-01T07:36:59.811Z,98.30
2017-12-01T07:39:27.359Z,98.50
2017-12-01T07:41:54.946Z,98.40
2017-12-01T07:47:36.065Z,98.30
2017-12-01T07:50:03.647Z,98.40
2017-12-01T07:52:31.190Z,98.20
2017-12-01T07:54:59.507Z,98.00
2017-12-01T07:57:27.195Z,98.00
2017-12-01T07:59:54.739Z,97.90
2017-12-01T08:02:22.282Z,98.50
2017-12-01T08:04:50.739Z,98.60
2017-12-01T08:07:18.299Z,98.60
2017-12-01T08:09:45.844Z,98.30
2017-12-01T08:12:13.427Z,98.40
2017-12-01T08:14:40.978Z,97.90
2017-12-01T08:17:31.342Z,97.80
2017-12-01T08:19:58.886Z,97.20
2017-12-01T08:22:38.248Z,97.00
2017-12-01T08:25:17.516Z,97.00
2017-12-01T08:27:45.133Z,97.10
2017-12-01T08:30:12.687Z,97.30
2017-12-01T08:32:41.000Z,97.20
2017-12-01T08:35:08.799Z,97.20
2017-12-01T08:37:36.355Z,97.30
2017-12-01T08:40:03.903Z,97.40
2017-12-01T08:42:31.612Z,97.50
2017-12-01T08:44:59.160Z,97.20
2017-12-01T08:47:26.704Z,97.40
2017-12-01T08:49:55.050Z,97.30
2017-12-01T08:52:22.599Z,97.30
2017-12-01T08:54:50.154Z,97.30
2017-12-01T08:57:17.794Z,97.40
2017-12-01T08:59:45.347Z,97.60
2017-12-01T09:02:12.899Z,97.80
2017-12-01T09:04:40.600Z,97.90
2017-12-01T09:07:08.163Z,97.90
2017-12-01T09:09:35.716Z,97.90
2017-12-01T09:12:03.408Z,98.00
2017-12-01T09:14:30.963Z,97.90
2017-12-01T09:16:58.511Z,98.20
2017-12-01T09:19:26.111Z,98.10
2017-12-01T09:21:53.682Z,98.00
2017-12-01T09:24:21.243Z,98.00
2017-12-01T09:26:48.939Z,98.10
2017-12-01T09:29:16.487Z,98.20
2017-12-01T09:31:44.036Z,98.40
2017-12-01T09:34:11.631Z,98.30
2017-12-01T09:36:39.184Z,98.50
2017-12-01T09:39:06.731Z,98.50
2017-12-01T09:41:34.452Z,99.00
2017-12-01T09:44:01.997Z,99.10
2017-12-01T09:46:29.538Z,99.20
2017-12-01T09:48:57.892Z,99.20
2017-12-01T09:51:25.450Z,99.20
2017-12-01T09:53:52.994Z,99.10
2017-12-01T09:56:20.603Z,99.10
2017-12-01T09:58:48.146Z,99.00
2017-12-01T10:01:15.694Z,98.90
2017-12-01T10:03:44.056Z,99.10
2017-12-01T10:06:11.604Z,99.10
2017-12-01T10:08:39.159Z,99.20
2017-12-01T10:11:06.747Z,99.20
2017-12-01T10:13:34.296Z,99.10
2017-12-01T10:16:01.847Z,99.00
2017-12-01T10:18:29.563Z,98.90
2017-12-01T10:20:57.111Z,98.90
2017-12-01T10:23:24.658Z,99.00
2017-12-01T10:25:53.198Z,99.10
2017-12-01T10:28:20.751Z,99.10
2017-12-01T10:30:48.299Z,99.20
2017-12-01T10:33:15.907Z,99.00
2017-12-01T10:35:43.459Z,98.90
2017-12-01T10:38:11.007Z,98.90
2017-12-01T10:40:39.542Z,98.70
2017-12-01T10:43:07.091Z,98.70
2017-12-01T10:45:34.645Z,98.40
2017-12-01T10:48:03.003Z,98.40
2017-12-01T10:50:30.551Z,98.40
2017-12-01T10:52:58.099Z,98.70
2017-12-01T10:55:25.710Z,98.90
2017-12-01T10:57:53.269Z,98.90
2017-12-01T11:00:20.823Z,98.80
2017-12-01T11:02:48.428Z,98.70
2017-12-01T11:05:15.986Z,98.70
2017-12-01T11:07:43.539Z,98.80
2017-12-01T11:10:11.130Z,98.90
2017-12-01T11:12:38.682Z,99.30
2017-12-01T11:15:06.230Z,98.50
2017-12-01T11:17:33.834Z,98.60
2017-12-01T11:20:01.399Z,98.30
2017-12-01T11:22:28.961Z,98.60
2017-12-01T11:24:56.771Z,98.30
2017-12-01T11:27:24.321Z,98.30
2017-12-01T11:29:51.868Z,98.20
2017-12-01T11:32:19.471Z,98.20
2017-12-01T11:34:47.023Z,98.10
2017-12-01T11:37:14.607Z,98.30
2017-12-01T11:39:42.211Z,97.70
2017-12-01T11:42:09.759Z,98.00
2017-12-01T11:44:37.311Z,98.10
2017-12-01T11:47:04.903Z,97.90
2017-12-01T11:49:32.540Z,98.00
2017-12-01T11:52:00.108Z,97.70
2017-12-01T11:54:27.707Z,97.70
2017-12-01T11:56:55.259Z,97.80
2017-12-01T11:59:22.817Z,97.90
2017-12-01T12:01:50.547Z,98.10
2017-12-01T12:04:18.101Z,98.00
2017-12-01T12:06:45.660Z,98.10
2017-12-01T12:09:13.251Z,98.10
2017-12-01T12:11:40.799Z,98.20
2017-12-01T12:14:08.348Z,98.40
2017-12-01T12:16:35.935Z,98.00
2017-12-01T12:19:03.484Z,98.00
2017-12-01T12:21:31.034Z,98.10
2017-12-01T12:23:58.636Z,98.20
2017-12-01T12:26:26.183Z,98.00
2017-12-01T12:28:54.523Z,98.30
2017-12-01T12:31:22.127Z,98.20
2017-12-01T12:33:49.683Z,97.90
2017-12-01T12:36:17.242Z,97.90
2017-12-01T12:38:44.839Z,98.00
2017-12-01T12:41:13.906Z,98.40
2017-12-01T12:43:41.466Z,98.10
2017-12-01T12:46:09.167Z,98.00
2017-12-01T12:48:36.720Z,98.10
2017-12-01T12:51:04.280Z,98.00
2017-12-01T12:53:31.978Z,97.80
2017-12-01T12:55:59.623Z,98.10
2017-12-01T12:58:27.747Z,98.50
2017-12-01T13:00:55.339Z,98.40
2017-12-01T13:03:22.891Z,98.20
2017-12-01T13:05:50.910Z,98.30
2017-12-01T13:08:19.278Z,98.30
2017-12-01T13:10:46.836Z,98.30
2017-12-01T13:13:15.907Z,98.50
2017-12-01T13:15:43.600Z,98.50
2017-12-01T13:18:11.154Z,98.30
2017-12-01T13:20:38.704Z,98.50
2017-12-01T13:23:07.245Z,99.10
2017-12-01T13:25:35.283Z,99.10
2017-12-01T13:28:03.604Z,99.10
2017-12-01T13:30:31.287Z,99.10
2017-12-01T13:32:58.836Z,98.70
2017-12-01T13:35:26.418Z,98.60
2017-12-01T13:37:54.224Z,98.50
2017-12-01T13:40:21.779Z,98.60
2017-12-01T13:42:49.324Z,98.50
2017-12-01T13:45:17.236Z,98.50
2017-12-01T13:47:44.800Z,98.50
2017-12-01T13:50:12.352Z,98.60
2017-12-01T13:52:40.052Z,98.60
2017-12-01T13:55:07.595Z,98.60
2017-12-01T13:57:35.141Z,98.60
2017-12-01T14:00:03.683Z,98.70
2017-12-01T14:02:31.265Z,98.70
2017-12-01T14:04:58.824Z,98.60
2017-12-01T14:07:26.419Z,98.60
2017-12-01T14:09:53.976Z,98.70
2017-12-01T14:12:21.527Z,98.80
2017-12-01T14:14:49.115Z,98.80
2017-12-01T14:17:16.662Z,98.70
2017-12-01T14:19:44.203Z,98.50
2017-12-01T14:22:12.565Z,98.40
2017-12-01T14:24:40.108Z,98.40
2017-12-01T14:27:07.663Z,98.30
2017-12-01T14:29:35.351Z,98.40
2017-12-01T14:32:02.902Z,98.40
2017-12-01T14:34:30.454Z,98.20
2017-12-01T14:36:58.871Z,98.30
2017-12-01T14:39:26.428Z,98.30
2017-12-01T14:41:54.001Z,98.10
2017-12-01T14:44:21.591Z,98.30
2017-12-01T14:46:49.168Z,98.60
2017-12-01T14:49:16.723Z,98.70
2017-12-01T14:51:44.310Z,98.90
2017-12-01T14:54:11.967Z,98.90
2017-12-01T14:56:39.519Z,98.70
2017-12-01T14:59:07.967Z,98.90
2017-12-01T15:01:35.519Z,98.90
2017-12-01T15:04:03.079Z,98.80
2017-12-01T15:06:30.679Z,98.80
2017-12-01T15:08:58.243Z,98.80
2017-12-01T15:11:26.013Z,98.90
2017-12-01T15:13:53.785Z,99.00
2017-12-01T15:16:21.339Z,98.80
2017-12-01T15:18:48.895Z,98.90
2017-12-01T15:21:16.607Z,98.90
2017-12-01T15:23:44.165Z,99.10
2017-12-01T15:26:11.707Z,99.10
2017-12-01T15:28:40.071Z,98.90
2017-12-01T15:31:07.628Z,98.90
2017-12-01T15:33:35.246Z,98.90
2017-12-01T15:36:02.844Z,99.00
2017-12-01T15:38:30.401Z,98.90
2017-12-01T15:40:57.958Z,99.00
2017-12-01T15:43:25.539Z,99.00
2017-12-01T15:45:53.087Z,99.10
2017-12-01T15:48:21.404Z,99.30
2017-12-01T15:50:49.000Z,99.30
2017-12-01T15:53:16.546Z,99.30
2017-12-01T15:55:44.095Z,99.10
2017-12-01T15:58:12.443Z,99.30
2017-12-01T16:00:39.993Z,99.30
2017-12-01T16:03:07.539Z,99.30
2017-12-01T16:05:35.247Z,99.40
2017-12-01T16:08:02.801Z,99.90
2017-12-01T16:10:30.343Z,99.90
2017-12-01T16:12:58.706Z,99.00
2017-12-01T16:15:27.769Z,97.90
2017-12-01T16:17:55.325Z,97.90
2017-12-01T16:20:32.541Z,96.80
2017-12-01T16:23:00.093Z,96.80
2017-12-01T16:25:27.648Z,97.40
2017-12-01T16:27:56.374Z,97.80
2017-12-01T16:30:24.087Z,97.80
2017-12-01T16:32:51.658Z,98.20
2017-12-01T16:35:19.513Z,98.30
2017-12-01T16:37:47.074Z,98.10
2017-12-01T16:40:14.626Z,98.30
2017-12-01T16:42:42.224Z,98.70
2017-12-01T16:45:09.779Z,98.70
2017-12-01T16:47:37.864Z,98.70
2017-12-01T16:50:06.210Z,99.10
2017-12-01T16:52:34.511Z,99.10
2017-12-01T16:55:02.827Z,99.40
2017-12-01T16:57:30.635Z,99.40
2017-12-01T17:00:01.471Z,99.30
2017-12-01T17:02:29.041Z,99.30
2017-12-01T17:04:56.637Z,99.70
2017-12-01T17:07:24.685Z,99.50
2017-12-01T17:09:53.079Z,99.90
2017-12-01T17:12:20.851Z,99.90
2017-12-01T17:14:48.435Z,99.80
2017-12-01T17:17:15.991Z,99.90
2017-12-01T17:19:43.706Z,99.70
2017-12-01T17:22:11.257Z,99.80
2017-12-01T17:24:39.456Z,99.70
2017-12-01T17:27:07.056Z,99.70
2017-12-01T17:29:34.607Z,99.80
2017-12-01T17:32:02.151Z,99.90
2017-12-01T17:34:29.938Z,99.90
2017-12-01T17:36:57.486Z,99.80
2017-12-01T17:39:25.042Z,99.80
2017-12-01T17:41:52.654Z,99.90
2017-12-01T17:44:20.197Z,99.90
2017-12-01T17:46:47.771Z,99.90
2017-12-01T17:49:15.371Z,99.90
2017-12-01T17:51:42.920Z,99.90
2017-12-01T17:54:10.471Z,99.90
2017-12-01T17:56:38.183Z,99.90
2017-12-01T17:59:05.736Z,99.90
2017-12-01T18:01:33.411Z,99.90
2017-12-01T18:04:01.011Z,99.90
2017-12-01T18:06:28.559Z,99.90
2017-12-01T18:08:56.113Z,99.90
2017-12-01T18:11:23.702Z,99.90
2017-12-01T18:13:51.256Z,99.90
2017-12-01T18:16:18.811Z,99.90
2017-12-01T18:18:47.252Z,98.30
2017-12-01T18:21:14.799Z,98.20
2017-12-01T18:23:42.346Z,98.50
2017-12-01T18:26:10.036Z,98.60
2017-12-01T18:28:37.651Z,98.90
2017-12-01T18:31:05.203Z,99.20
2017-12-01T18:33:33.879Z,99.50
2017-12-01T18:36:01.756Z,99.50
2017-12-01T18:38:30.607Z,99.90
2017-12-01T18:40:58.221Z,99.90
2017-12-01T18:43:25.767Z,99.90
2017-12-01T18:45:54.222Z,99.80
2017-12-01T18:48:22.691Z,99.90
2017-12-01T18:50:50.647Z,99.90
2017-12-01T18:53:18.199Z,99.80
2017-12-01T18:55:46.656Z,99.80
2017-12-01T18:58:14.232Z,99.50
2017-12-01T19:00:41.779Z,99.70
2017-12-01T19:03:09.378Z,99.70
2017-12-01T19:05:36.940Z,99.90
2017-12-01T19:08:04.594Z,99.90
2017-12-01T19:10:32.569Z,99.90
2017-12-01T19:13:00.447Z,99.90
2017-12-01T19:15:28.184Z,99.90
2017-12-01T19:17:57.024Z,99.90
2017-12-01T19:20:24.644Z,99.90
2017-12-01T19:22:52.215Z,99.90
2017-12-01T19:25:19.908Z,99.90
2017-12-01T19:27:48.231Z,99.90
2017-12-01T19:30:15.779Z,99.90
2017-12-01T19:32:44.131Z,98.10
2017-12-01T19:35:11.692Z,98.10
2017-12-01T19:37:39.243Z,98.30
2017-12-01T19:40:06.979Z,98.70
2017-12-01T19:42:35.373Z,98.50
2017-12-01T19:45:03.927Z,98.70
2017-12-01T19:47:31.770Z,98.70
2017-12-01T19:49:59.650Z,99.10
2017-12-01T19:52:27.636Z,99.20
2017-12-01T19:54:55.610Z,99.40
2017-12-01T19:57:23.171Z,99.60
2017-12-01T19:59:50.719Z,99.80
2017-12-01T20:02:18.432Z,99.80
2017-12-01T20:04:45.980Z,99.90
2017-12-01T20:07:13.524Z,99.90
2017-12-01T20:09:41.311Z,99.90
2017-12-01T20:12:08.895Z,99.90
2017-12-01T20:14:36.451Z,99.90
2017-12-01T20:17:05.185Z,99.90
2017-12-01T20:19:32.897Z,99.90
2017-12-01T20:22:01.252Z,99.90
2017-12-01T20:24:29.517Z,99.90
2017-12-01T20:26:57.063Z,99.90
2017-12-01T20:29:24.623Z,99.90
2017-12-01T20:31:52.226Z,99.90
2017-12-01T20:34:20.540Z,99.90
2017-12-01T20:36:48.092Z,99.90
2017-12-01T20:39:15.680Z,99.90
2017-12-01T20:41:43.227Z,99.90
2017-12-01T20:44:11.621Z,99.90
2017-12-01T20:46:40.344Z,99.90
2017-12-01T20:49:08.125Z,99.90
2017-12-01T20:51:36.019Z,99.90
2017-12-01T20:54:04.099Z,99.90
2017-12-01T20:56:31.656Z,99.90
2017-12-01T20:58:59.428Z,99.90
2017-12-01T21:01:27.191Z,99.90
2017-12-01T21:03:54.751Z,99.90
2017-12-01T21:06:23.063Z,99.90
2017-12-01T21:08:50.967Z,99.90
2017-12-01T21:11:18.513Z,99.90
2017-12-01T21:13:46.083Z,99.90
2017-12-01T21:16:14.131Z,99.90
2017-12-01T21:18:42.447Z,99.90
2017-12-01T21:21:10.024Z,99.90
2017-12-01T21:23:37.631Z,99.90
2017-12-01T21:26:05.181Z,99.90
2017-12-01T21:28:32.735Z,99.90
2017-12-01T21:31:00.443Z,99.90
2017-12-01T21:33:27.996Z,99.90
2017-12-01T21:35:55.540Z,99.90
2017-12-01T21:38:24.036Z,99.90
2017-12-01T21:40:51.598Z,99.90
2017-12-01T21:43:19.911Z,99.90
2017-12-01T21:45:47.558Z,99.90
2017-12-01T21:48:15.139Z,99.90
2017-12-01T21:50:42.692Z,99.90
2017-12-01T21:53:11.057Z,99.90
2017-12-01T21:55:38.608Z,99.90
2017-12-01T21:58:06.155Z,99.90
2017-12-01T22:00:33.744Z,99.90
2017-12-01T22:03:01.296Z,99.90
2017-12-01T22:05:28.852Z,99.90
2017-12-01T22:07:57.226Z,99.90
2017-12-01T22:10:25.542Z,99.90
2017-12-01T22:12:53.098Z,99.90
2017-12-01T22:15:21.561Z,99.90
2017-12-01T22:17:49.106Z,99.90
2017-12-01T22:20:16.655Z,99.90
2017-12-01T22:22:44.255Z,99.90
2017-12-01T22:25:11.799Z,99.90
2017-12-01T22:27:39.355Z,99.90
2017-12-01T22:30:06.956Z,99.90
2017-12-01T22:32:34.511Z,99.90
2017-12-01T22:35:02.071Z,99.90
2017-12-01T22:37:29.676Z,99.90
2017-12-01T22:39:57.239Z,99.90
2017-12-01T22:42:24.787Z,99.90
2017-12-01T22:44:52.496Z,99.90
2017-12-01T22:47:20.040Z,99.90
2017-12-01T22:49:47.598Z,99.90
2017-12-01T22:52:15.206Z,99.80
2017-12-01T22:54:42.756Z,99.80
2017-12-01T22:57:10.303Z,99.80
2017-12-01T22:59:38.671Z,99.90
2017-12-01T23:02:06.223Z,99.90
2017-12-01T23:04:33.767Z,99.80
2017-12-01T23:07:01.535Z,99.90
2017-12-01T23:09:29.079Z,99.90
2017-12-01T23:11:57.397Z,99.90
2017-12-01T23:14:25.090Z,99.90
2017-12-01T23:16:52.648Z,99.90
2017-12-01T23:19:20.191Z,99.90
2017-12-01T23:21:48.560Z,99.90
2017-12-01T23:24:16.111Z,99.90
2017-12-01T23:26:43.663Z,99.90
2017-12-01T23:29:11.247Z,99.90
2017-12-01T23:31:38.796Z,99.90
2017-12-01T23:34:06.348Z,99.90
2017-12-01T23:36:34.050Z,99.90
2017-12-01T23:39:01.601Z,99.90
2017-12-01T23:41:29.199Z,99.90
2017-12-01T23:43:56.772Z,99.90
2017-12-01T23:46:24.335Z,99.90
2017-12-01T23:48:51.883Z,99.90
2017-12-01T23:51:19.487Z,99.90
2017-12-01T23:53:47.045Z,99.90
2017-12-01T23:56:14.591Z,99.90
2017-12-01T23:58:42.326Z,99.90
